createdAt,value
2022-09-15T00:02:10.428Z,100.00
2022-09-15T00:04:37.491Z,100.00
2022-09-15T00:07:24.320Z,100.00
2022-09-15T00:10:25.282Z,100.00
2022-09-15T00:13:26.303Z,100.00
2022-09-15T00:16:28.374Z,100.00
2022-09-15T00:19:09.027Z,100.00
2022-09-15T00:21:39.234Z,100.00
2022-09-15T00:24:06.792Z,100.00
2022-09-15T00:26:33.854Z,100.00
2022-09-15T00:29:01.487Z,100.00
2022-09-15T00:31:30.087Z,100.00
2022-09-15T00:33:58.979Z,100.00
2022-09-15T00:36:26.972Z,100.00
2022-09-15T00:38:54.318Z,100.00
2022-09-15T00:41:23.440Z,100.00
2022-09-15T00:43:53.340Z,100.00
2022-09-15T00:46:23.999Z,100.00
2022-09-15T00:49:05.727Z,100.00
2022-09-15T00:52:00.435Z,100.00
2022-09-15T00:54:31.016Z,100.00
2022-09-15T00:57:02.858Z,100.00
2022-09-15T00:59:51.303Z,100.00
2022-09-15T01:02:34.799Z,100.00
2022-09-15T01:05:05.290Z,100.00
2022-09-15T01:08:05.323Z,100.00
2022-09-15T01:11:06.355Z,100.00
2022-09-15T01:14:07.329Z,100.00
2022-09-15T01:17:04.099Z,100.00
2022-09-15T01:19:34.000Z,100.00
2022-09-15T01:22:21.848Z,100.00
2022-09-15T01:25:20.634Z,100.00
2022-09-15T01:27:57.939Z,100.00
2022-09-15T01:30:25.954Z,100.00
2022-09-15T01:33:11.655Z,100.00
2022-09-15T01:36:05.207Z,100.00
2022-09-15T01:38:41.779Z,100.00
2022-09-15T01:41:29.668Z,100.00
2022-09-15T01:44:06.529Z,100.00
2022-09-15T01:46:39.342Z,100.00
2022-09-15T01:49:12.166Z,100.00
2022-09-15T01:51:40.879Z,100.00
2022-09-15T01:54:08.920Z,100.00
2022-09-15T01:56:37.882Z,100.00
2022-09-15T01:59:25.362Z,100.00
2022-09-15T02:02:34.375Z,100.00
2022-09-15T02:05:53.342Z,100.00
2022-09-15T02:08:58.387Z,100.00
2022-09-15T02:11:53.089Z,100.00
2022-09-15T02:14:57.421Z,100.00
2022-09-15T02:17:45.668Z,100.00
2022-09-15T02:20:20.243Z,100.00
2022-09-15T02:22:53.999Z,100.00
2022-09-15T02:25:29.012Z,100.00
2022-09-15T02:28:02.642Z,100.00
2022-09-15T02:30:32.104Z,100.00
2022-09-15T02:33:04.039Z,100.00
2022-09-15T02:35:34.929Z,100.00
2022-09-15T02:38:05.314Z,100.00
2022-09-15T02:40:32.649Z,100.00
2022-09-15T02:43:02.030Z,100.00
2022-09-15T02:45:33.963Z,100.00
2022-09-15T02:48:00.985Z,100.00
2022-09-15T02:50:27.985Z,100.00
2022-09-15T02:52:55.735Z,100.00
2022-09-15T02:55:23.741Z,100.00
2022-09-15T02:58:11.449Z,100.00
2022-09-15T03:01:15.491Z,100.00
2022-09-15T03:04:17.377Z,100.00
2022-09-15T03:07:11.546Z,100.00
2022-09-15T03:10:05.440Z,100.00
2022-09-15T03:13:07.437Z,100.00
2022-09-15T03:15:47.953Z,100.00
2022-09-15T03:18:14.862Z,100.00
2022-09-15T03:20:41.741Z,100.00
2022-09-15T03:23:08.797Z,100.00
2022-09-15T03:25:35.919Z,100.00
2022-09-15T03:28:03.087Z,100.00
2022-09-15T03:30:30.060Z,100.00
2022-09-15T03:32:56.902Z,100.00
2022-09-15T03:35:23.817Z,100.00
2022-09-15T03:37:50.789Z,100.00
2022-09-15T03:40:18.114Z,100.00
2022-09-15T03:42:45.104Z,100.00
2022-09-15T03:45:11.946Z,100.00
2022-09-15T03:47:39.117Z,100.00
2022-09-15T03:50:06.894Z,100.00
2022-09-15T03:52:33.795Z,100.00
2022-09-15T03:55:00.844Z,100.00
2022-09-15T03:57:27.760Z,100.00
2022-09-15T04:00:15.431Z,100.00
2022-09-15T04:02:56.122Z,100.00
2022-09-15T04:05:36.617Z,100.00
2022-09-15T04:08:30.438Z,100.00
2022-09-15T04:11:32.449Z,100.00
2022-09-15T04:14:25.443Z,100.00
2022-09-15T04:17:05.999Z,100.00
2022-09-15T04:19:32.820Z,100.00
2022-09-15T04:21:59.759Z,100.00
2022-09-15T04:24:26.646Z,100.00
2022-09-15T04:26:53.597Z,100.00
2022-09-15T04:29:20.488Z,100.00
2022-09-15T04:31:47.413Z,100.00
2022-09-15T04:34:14.430Z,100.00
2022-09-15T04:36:41.290Z,100.00
2022-09-15T04:39:08.202Z,100.00
2022-09-15T04:41:35.132Z,100.00
2022-09-15T04:44:02.487Z,100.00
2022-09-15T04:46:29.452Z,100.00
2022-09-15T04:48:56.996Z,100.00
2022-09-15T04:51:25.100Z,100.00
2022-09-15T04:53:52.198Z,100.00
2022-09-15T04:56:22.301Z,100.00
2022-09-15T04:59:11.456Z,100.00
2022-09-15T05:02:12.503Z,100.00
2022-09-15T05:04:55.154Z,100.00
2022-09-15T05:07:42.467Z,100.00
2022-09-15T05:10:44.506Z,100.00
2022-09-15T05:13:45.484Z,100.00
2022-09-15T05:16:46.494Z,100.00
2022-09-15T05:19:47.505Z,100.00
2022-09-15T05:22:28.559Z,100.00
2022-09-15T05:24:55.588Z,100.00
2022-09-15T05:27:22.585Z,100.00
2022-09-15T05:29:49.468Z,100.00
2022-09-15T05:32:16.422Z,100.00
2022-09-15T05:34:43.367Z,100.00
2022-09-15T05:37:10.400Z,100.00
2022-09-15T05:39:38.088Z,100.00
2022-09-15T05:42:05.225Z,100.00
2022-09-15T05:44:32.133Z,100.00
2022-09-15T05:46:59.058Z,100.00
2022-09-15T05:49:46.540Z,100.00
2022-09-15T05:52:27.111Z,100.00
2022-09-15T05:54:58.877Z,100.00
2022-09-15T05:57:26.151Z,100.00
2022-09-15T06:00:06.515Z,100.00
2022-09-15T06:02:47.302Z,100.00
2022-09-15T06:05:14.274Z,100.00
2022-09-15T06:08:14.500Z,100.00
2022-09-15T06:11:22.520Z,100.00
2022-09-15T06:14:25.477Z,100.00
2022-09-15T06:17:26.499Z,100.00
2022-09-15T06:20:07.754Z,100.00
2022-09-15T06:22:34.680Z,100.00
2022-09-15T06:25:01.607Z,100.00
2022-09-15T06:27:28.507Z,100.00
2022-09-15T06:29:55.310Z,100.00
2022-09-15T06:32:22.188Z,100.00
2022-09-15T06:34:49.005Z,100.00
2022-09-15T06:37:16.374Z,100.00
2022-09-15T06:39:44.374Z,100.00
2022-09-15T06:42:13.819Z,100.00
2022-09-15T06:44:41.745Z,100.00
2022-09-15T06:47:09.027Z,100.00
2022-09-15T06:49:35.877Z,100.00
2022-09-15T06:52:02.824Z,100.00
2022-09-15T06:54:29.845Z,100.00
2022-09-15T06:56:56.800Z,99.99
2022-09-15T06:59:43.505Z,95.30
2022-09-15T07:02:24.204Z,100.00
2022-09-15T07:04:51.128Z,100.00
2022-09-15T07:07:38.564Z,98.41
2022-09-15T07:10:19.145Z,100.00
2022-09-15T07:13:01.328Z,100.00
2022-09-15T07:15:41.153Z,100.00
2022-09-15T07:18:28.553Z,100.00
2022-09-15T07:21:31.563Z,100.00
2022-09-15T07:24:12.785Z,100.00
2022-09-15T07:26:39.815Z,100.00
2022-09-15T07:29:07.326Z,100.00
2022-09-15T07:31:37.004Z,100.00
2022-09-15T07:34:04.986Z,100.00
2022-09-15T07:36:32.057Z,100.00
2022-09-15T07:39:19.575Z,100.00
2022-09-15T07:42:00.220Z,100.00
2022-09-15T07:44:27.130Z,100.00
2022-09-15T07:46:54.045Z,99.17
2022-09-15T07:49:40.590Z,100.00
2022-09-15T07:52:21.147Z,100.00
2022-09-15T07:54:48.000Z,100.00
2022-09-15T07:57:14.887Z,99.66
2022-09-15T08:00:01.625Z,96.02
2022-09-15T08:02:45.124Z,100.00
2022-09-15T08:05:11.980Z,100.00
2022-09-15T08:07:58.655Z,99.88
2022-09-15T08:10:41.141Z,96.84
2022-09-15T08:13:28.629Z,94.84
2022-09-15T08:16:15.073Z,94.49
2022-09-15T08:18:43.272Z,94.78
2022-09-15T08:21:13.715Z,90.41
2022-09-15T08:23:41.110Z,95.09
2022-09-15T08:26:14.106Z,97.41
2022-09-15T08:28:42.478Z,100.00
2022-09-15T08:31:11.667Z,100.00
2022-09-15T08:33:44.561Z,98.28
2022-09-15T08:36:12.722Z,99.03
2022-09-15T08:38:40.861Z,98.29
2022-09-15T08:41:14.119Z,100.00
2022-09-15T08:43:58.107Z,98.49
2022-09-15T08:46:35.994Z,100.00
2022-09-15T08:49:15.163Z,100.00
2022-09-15T08:51:46.952Z,100.00
2022-09-15T08:54:26.808Z,100.00
2022-09-15T08:56:56.478Z,99.89
2022-09-15T08:59:47.624Z,98.16
2022-09-15T09:03:19.592Z,97.09
2022-09-15T09:06:37.628Z,92.18
2022-09-15T09:09:45.625Z,90.26
2022-09-15T09:13:24.624Z,88.02
2022-09-15T09:16:20.324Z,89.33
2022-09-15T09:18:53.182Z,84.58
2022-09-15T09:21:29.662Z,82.85
2022-09-15T09:24:15.257Z,81.25
2022-09-15T09:26:42.972Z,79.59
2022-09-15T09:29:18.524Z,76.19
2022-09-15T09:31:51.118Z,84.21
2022-09-15T09:34:43.151Z,78.53
2022-09-15T09:37:17.309Z,82.55
2022-09-15T09:40:04.735Z,75.00
2022-09-15T09:42:45.778Z,76.01
2022-09-15T09:45:18.989Z,76.01
2022-09-15T09:47:49.130Z,75.00
2022-09-15T09:50:36.374Z,73.05
2022-09-15T09:53:24.357Z,68.30
2022-09-15T09:55:53.325Z,69.08
2022-09-15T09:58:40.720Z,71.22
2022-09-15T10:01:25.547Z,74.86
2022-09-15T10:04:17.208Z,73.88
2022-09-15T10:07:04.647Z,68.74
2022-09-15T10:10:15.731Z,68.69
2022-09-15T10:13:16.678Z,69.23
2022-09-15T10:16:03.547Z,71.26
2022-09-15T10:18:34.629Z,73.07
2022-09-15T10:21:04.962Z,71.20
2022-09-15T10:23:34.164Z,72.22
2022-09-15T10:26:16.249Z,72.28
2022-09-15T10:28:44.750Z,73.86
2022-09-15T10:31:30.517Z,74.64
2022-09-15T10:33:57.425Z,75.01
2022-09-15T10:36:30.763Z,74.06
2022-09-15T10:39:12.792Z,72.40
2022-09-15T10:42:12.682Z,72.11
2022-09-15T10:45:45.696Z,66.93
2022-09-15T10:48:27.822Z,67.46
2022-09-15T10:51:16.166Z,67.62
2022-09-15T10:53:57.644Z,62.38
2022-09-15T10:56:29.817Z,69.94
2022-09-15T10:59:41.698Z,67.59
2022-09-15T11:03:10.729Z,67.30
2022-09-15T11:06:28.962Z,69.14
2022-09-15T11:09:45.780Z,67.97
2022-09-15T11:13:05.698Z,67.38
2022-09-15T11:16:12.206Z,68.22
2022-09-15T11:18:45.152Z,66.41
2022-09-15T11:21:18.158Z,66.37
2022-09-15T11:24:03.861Z,68.16
2022-09-15T11:26:37.660Z,65.72
2022-09-15T11:29:18.595Z,66.88
2022-09-15T11:31:52.343Z,67.41
2022-09-15T11:34:32.112Z,67.84
2022-09-15T11:37:21.121Z,64.33
2022-09-15T11:40:17.816Z,64.47
2022-09-15T11:43:39.704Z,64.61
2022-09-15T11:47:03.731Z,65.05
2022-09-15T11:49:47.089Z,66.18
2022-09-15T11:52:32.780Z,65.12
2022-09-15T11:55:13.909Z,65.80
2022-09-15T11:58:24.740Z,68.57
2022-09-15T12:01:16.175Z,67.59
2022-09-15T12:04:13.718Z,71.49
2022-09-15T12:07:22.764Z,65.58
2022-09-15T12:10:28.381Z,64.60
2022-09-15T12:12:56.620Z,63.70
2022-09-15T12:15:27.523Z,64.64
2022-09-15T12:18:39.830Z,67.82
2022-09-15T12:22:02.765Z,67.95
2022-09-15T12:25:09.533Z,67.58
2022-09-15T12:27:36.477Z,68.17
2022-09-15T12:30:04.630Z,67.23
2022-09-15T12:32:34.953Z,68.11
2022-09-15T12:35:30.795Z,69.22
2022-09-15T12:38:14.167Z,67.71
2022-09-15T12:41:11.803Z,68.05
2022-09-15T12:43:53.837Z,69.48
2022-09-15T12:46:20.998Z,69.30
2022-09-15T12:48:49.789Z,73.75
2022-09-15T12:51:41.755Z,72.13
2022-09-15T12:54:26.878Z,69.47
2022-09-15T12:57:14.778Z,70.34
2022-09-15T13:00:33.783Z,66.31
2022-09-15T13:06:37.799Z,67.50
2022-09-15T13:09:41.770Z,66.73
2022-09-15T13:12:26.541Z,66.27
2022-09-15T13:14:56.880Z,65.88
2022-09-15T13:17:25.865Z,65.69
2022-09-15T13:20:00.439Z,66.17
2022-09-15T13:22:32.340Z,63.76
2022-09-15T13:25:13.793Z,69.75
2022-09-15T13:27:54.864Z,62.25
2022-09-15T13:30:24.894Z,63.71
2022-09-15T13:33:22.413Z,58.08
2022-09-15T13:35:52.419Z,59.87
2022-09-15T13:38:58.806Z,59.74
2022-09-15T13:42:05.809Z,62.26
2022-09-15T13:45:24.799Z,61.80
2022-09-15T13:48:55.830Z,66.68
2022-09-15T13:52:04.839Z,63.85
2022-09-15T13:55:07.217Z,61.68
2022-09-15T14:01:09.071Z,64.93
2022-09-15T14:03:38.955Z,67.32
2022-09-15T14:06:33.870Z,71.26
2022-09-15T14:09:18.306Z,69.60
2022-09-15T14:11:49.828Z,69.47
2022-09-15T14:14:45.626Z,69.48
2022-09-15T14:17:24.222Z,69.91
2022-09-15T14:19:59.356Z,66.08
2022-09-15T14:22:48.831Z,64.46
2022-09-15T14:25:30.694Z,66.12
2022-09-15T14:27:57.681Z,66.27
2022-09-15T14:30:27.797Z,62.95
2022-09-15T14:33:00.711Z,58.43
2022-09-15T14:35:35.841Z,59.78
2022-09-15T14:38:36.836Z,59.70
2022-09-15T14:41:37.832Z,60.62
2022-09-15T14:47:44.882Z,58.39
2022-09-15T14:50:45.855Z,56.88
2022-09-15T14:53:27.904Z,58.35
2022-09-15T14:56:08.984Z,58.54
2022-09-15T14:59:05.858Z,57.23
2022-09-15T15:01:56.709Z,60.51
2022-09-15T15:04:24.447Z,61.89
2022-09-15T15:07:20.858Z,61.61
2022-09-15T15:10:04.730Z,63.84
2022-09-15T15:12:47.671Z,65.04
2022-09-15T15:15:16.472Z,63.54
2022-09-15T15:17:49.813Z,63.95
2022-09-15T15:20:42.871Z,64.83
2022-09-15T15:23:25.707Z,63.02
2022-09-15T15:25:53.548Z,63.27
2022-09-15T15:28:31.276Z,64.59
2022-09-15T15:31:19.814Z,66.00
2022-09-15T15:33:55.858Z,68.80
2022-09-15T15:36:24.684Z,69.50
2022-09-15T15:39:19.870Z,68.03
2022-09-15T15:42:20.904Z,70.01
2022-09-15T15:45:36.966Z,68.96
2022-09-15T15:48:39.931Z,69.33
2022-09-15T15:51:40.907Z,67.07
2022-09-15T15:54:41.955Z,66.08
2022-09-15T15:57:28.005Z,66.16
2022-09-15T16:00:17.727Z,64.52
2022-09-15T16:03:01.432Z,63.52
2022-09-15T16:05:48.954Z,62.66
2022-09-15T16:08:53.042Z,62.65
2022-09-15T16:11:33.527Z,61.65
2022-09-15T16:14:00.883Z,62.33
2022-09-15T16:16:29.283Z,62.53
2022-09-15T16:18:56.355Z,63.02
2022-09-15T16:21:44.980Z,63.35
2022-09-15T16:24:45.903Z,64.38
2022-09-15T16:27:17.732Z,67.04
2022-09-15T16:29:45.091Z,65.77
2022-09-15T16:32:18.638Z,66.64
2022-09-15T16:34:45.492Z,67.93
2022-09-15T16:37:12.956Z,67.70
2022-09-15T16:40:00.949Z,68.04
2022-09-15T16:42:41.580Z,70.62
2022-09-15T16:45:22.968Z,70.51
2022-09-15T16:48:09.944Z,71.03
2022-09-15T16:54:32.927Z,72.51
2022-09-15T16:57:33.935Z,74.14
2022-09-15T17:00:34.994Z,74.26
2022-09-15T17:03:17.766Z,75.00
2022-09-15T17:06:06.964Z,74.30
2022-09-15T17:09:07.942Z,75.05
2022-09-15T17:11:48.628Z,78.31
2022-09-15T17:14:17.027Z,80.11
2022-09-15T17:16:47.296Z,80.96
2022-09-15T17:19:14.447Z,82.48
2022-09-15T17:21:41.462Z,82.98
2022-09-15T17:24:08.912Z,82.90
2022-09-15T17:26:35.799Z,81.59
2022-09-15T17:29:02.758Z,82.25
2022-09-15T17:31:29.905Z,85.06
2022-09-15T17:33:57.367Z,86.03
2022-09-15T17:36:24.430Z,86.18
2022-09-15T17:38:51.366Z,88.04
2022-09-15T17:41:37.973Z,87.18
2022-09-15T17:44:25.543Z,87.56
2022-09-15T17:46:52.568Z,88.95
2022-09-15T17:49:19.443Z,90.35
2022-09-15T17:51:46.381Z,91.47
2022-09-15T17:54:33.008Z,90.74
2022-09-15T17:57:34.002Z,91.66
2022-09-15T18:00:36.022Z,92.01
2022-09-15T18:03:43.055Z,93.68
2022-09-15T18:06:45.702Z,93.06
2022-09-15T18:09:46.001Z,94.22
2022-09-15T18:12:26.785Z,95.83
2022-09-15T18:14:53.635Z,96.20
2022-09-15T18:17:40.983Z,96.65
2022-09-15T18:20:24.110Z,96.26
2022-09-15T18:22:51.196Z,96.61
2022-09-15T18:25:20.630Z,97.29
2022-09-15T18:27:49.378Z,97.73
2022-09-15T18:30:17.005Z,99.11
2022-09-15T18:32:44.805Z,99.28
2022-09-15T18:35:32.984Z,100.00
2022-09-15T18:38:13.965Z,100.00
2022-09-15T18:40:49.333Z,100.00
2022-09-15T18:43:37.030Z,100.00
2022-09-15T18:46:18.336Z,99.87
2022-09-15T18:48:45.280Z,99.12
2022-09-15T18:51:19.682Z,98.53
2022-09-15T18:53:54.293Z,98.72
2022-09-15T18:56:21.517Z,98.73
2022-09-15T18:59:08.049Z,98.20
2022-09-15T19:02:09.183Z,98.41
2022-09-15T19:04:49.711Z,96.06
2022-09-15T19:07:37.018Z,94.78
2022-09-15T19:10:17.837Z,94.37
2022-09-15T19:12:44.833Z,96.17
2022-09-15T19:15:13.547Z,94.78
2022-09-15T19:18:00.040Z,94.47
2022-09-15T19:20:40.921Z,93.84
2022-09-15T19:23:09.139Z,94.02
2022-09-15T19:25:36.437Z,95.15
2022-09-15T19:28:03.772Z,92.79
2022-09-15T19:30:30.680Z,96.86
2022-09-15T19:32:57.586Z,96.74
2022-09-15T19:35:24.900Z,93.58
2022-09-15T19:37:51.877Z,92.41
2022-09-15T19:40:19.055Z,89.63
2022-09-15T19:42:46.203Z,91.36
2022-09-15T19:45:13.627Z,91.10
2022-09-15T19:47:41.316Z,90.34
2022-09-15T19:50:10.084Z,93.80
2022-09-15T19:52:37.205Z,94.03
2022-09-15T19:55:25.073Z,96.59
2022-09-15T19:58:26.095Z,94.39
2022-09-15T20:01:28.135Z,92.51
2022-09-15T20:04:22.230Z,93.37
2022-09-15T20:07:23.072Z,94.04
2022-09-15T20:10:04.722Z,92.75
2022-09-15T20:12:52.060Z,94.71
2022-09-15T20:15:32.557Z,94.05
2022-09-15T20:18:24.090Z,96.31
2022-09-15T20:21:08.188Z,96.25
2022-09-15T20:23:35.610Z,98.16
2022-09-15T20:26:26.110Z,98.33
2022-09-15T20:29:07.002Z,96.21
2022-09-15T20:31:34.221Z,97.14
2022-09-15T20:34:02.355Z,97.93
2022-09-15T20:36:33.457Z,97.60
2022-09-15T20:39:03.229Z,96.47
2022-09-15T20:41:31.999Z,94.63
2022-09-15T20:43:59.639Z,95.79
2022-09-15T20:46:29.165Z,94.92
2022-09-15T20:48:56.098Z,95.66
2022-09-15T20:51:25.754Z,96.64
2022-09-15T20:53:54.894Z,96.76
2022-09-15T20:56:44.119Z,98.13
2022-09-15T20:59:38.309Z,96.56
2022-09-15T21:02:39.221Z,95.21
2022-09-15T21:05:19.634Z,93.46
2022-09-15T21:08:20.102Z,95.32
2022-09-15T21:11:23.102Z,96.93
2022-09-15T21:14:04.004Z,94.89
2022-09-15T21:16:31.585Z,93.59
2022-09-15T21:18:59.269Z,93.51
2022-09-15T21:21:29.885Z,93.83
2022-09-15T21:24:00.403Z,98.53
2022-09-15T21:26:29.330Z,97.06
2022-09-15T21:28:57.320Z,96.72
2022-09-15T21:31:33.371Z,95.52
2022-09-15T21:34:20.125Z,95.76
2022-09-15T21:37:00.627Z,94.82
2022-09-15T21:39:27.757Z,96.47
2022-09-15T21:41:54.686Z,96.51
2022-09-15T21:44:21.574Z,98.92
2022-09-15T21:46:48.457Z,100.00
2022-09-15T21:49:15.372Z,100.00
2022-09-15T21:51:42.292Z,100.00
2022-09-15T21:54:10.025Z,100.00
2022-09-15T21:56:57.144Z,100.00
2022-09-15T21:59:58.172Z,100.00
2022-09-15T22:02:38.697Z,100.00
2022-09-15T22:05:06.380Z,100.00
2022-09-15T22:07:33.154Z,99.90
2022-09-15T22:10:20.194Z,100.00
2022-09-15T22:13:23.149Z,99.59
2022-09-15T22:16:10.064Z,99.74
2022-09-15T22:18:38.547Z,100.00
2022-09-15T22:21:11.472Z,100.00
2022-09-15T22:23:39.538Z,100.00
2022-09-15T22:26:38.150Z,100.00
2022-09-15T22:29:18.987Z,100.00
2022-09-15T22:31:45.973Z,100.00
2022-09-15T22:34:12.814Z,100.00
2022-09-15T22:36:39.716Z,100.00
2022-09-15T22:39:06.954Z,100.00
2022-09-15T22:41:36.302Z,100.00
2022-09-15T22:44:04.466Z,100.00
2022-09-15T22:46:31.849Z,100.00
2022-09-15T22:49:01.633Z,100.00
2022-09-15T22:51:29.978Z,100.00
2022-09-15T22:53:57.590Z,100.00
2022-09-15T22:56:26.216Z,100.00
2022-09-15T22:59:13.207Z,100.00
2022-09-15T23:02:14.247Z,100.00
2022-09-15T23:04:54.783Z,100.00
2022-09-15T23:07:21.737Z,100.00
2022-09-15T23:10:09.205Z,100.00
2022-09-15T23:13:12.198Z,100.00
2022-09-15T23:15:52.704Z,100.00
2022-09-15T23:18:19.527Z,100.00
2022-09-15T23:20:46.678Z,100.00
2022-09-15T23:23:13.615Z,100.00
2022-09-15T23:25:40.720Z,100.00
2022-09-15T23:28:07.588Z,100.00
2022-09-15T23:30:54.262Z,100.00
2022-09-15T23:33:56.218Z,100.00
2022-09-15T23:36:36.943Z,100.00
2022-09-15T23:39:03.938Z,100.00
2022-09-15T23:41:31.180Z,100.00
2022-09-15T23:43:59.874Z,100.00
2022-09-15T23:46:27.025Z,100.00
2022-09-15T23:48:54.240Z,100.00
2022-09-15T23:51:21.627Z,100.00
2022-09-15T23:53:48.570Z,100.00
2022-09-15T23:56:15.685Z,100.00
2022-09-15T23:59:03.258Z,100.00
